メインページ
METAR-TAF:

METAR-TAF

空港 :

アドルフォ・スアレス・マドリード=バラハス空港

マドリード, スペイン

緯度: 40-27N, 経度: 003-33W, 海抜: 609m

現時点の気象観測

当レポートは36分前の07:00(UTC)に作成
変向風 1kt
気温 20°C
湿度 49%
気圧 1022 hPa
視程10km以上
高度4200ftの雲は散在している

METAR: LEMD 190700Z VRB01KT 9999 SCT042 20/09 Q1022 NOSIG

時間: 09:36 (07:36 UTC)

予報

当レポートは2時間36分前の05:00(UTC)に作成
予報は19日の 06時(UTC)から 20日の 12時(UTC)まで有効
変向風 5kt
視程10km以上
高度3000ftの雲はほとんどない
確率 30% :
19日の 15時(UTC)から 19日の 20時(UTC)まで一時的に
高度4500ftの雲はほとんどない, 塔状積雲.
確率 30% :
20日の 00時(UTC)から 20日の 06時(UTC)まで一時的に
北東の風 10kt

TAF: LEMD 190500Z 1906/2012 VRB05KT 9999 FEW030 TX33/1916Z TN18/2006Z PROB30 TEMPO 1915/1920 FEW045TCU PROB30 TEMPO 2000/2006 04010KT

4,000以上の空港の気象観測と天気予報(METAR報とTAF報)

利用可能な観測所は地図上に黄色い丸と赤い丸で示す。

丸の上にカーソルを重ねると観測所名を参照できる。

次にクリックすると気象観測と天気予報を参照できる。

マップの切り替え:黒色「×」印の緑ボタンをクリックして拡大、「-」印の緑ボタンをクリックして縮小、緑色の三角印をクリックして隣りの地図に切り替え


METAR-TAF: